createdAt,value
2024-04-15T00:01:45.378Z,100818.56
2024-04-15T00:04:14.405Z,100823.23
2024-04-15T00:06:41.598Z,100822.02
2024-04-15T00:09:08.678Z,100821.16
2024-04-15T00:11:35.766Z,100818.27
2024-04-15T00:14:03.194Z,100811.10
2024-04-15T00:16:30.608Z,100813.01
2024-04-15T00:18:57.763Z,100817.24
2024-04-15T00:21:24.892Z,100819.08
2024-04-15T00:23:51.957Z,100826.73
2024-04-15T00:26:19.132Z,100838.49
2024-04-15T00:28:47.039Z,100870.36
2024-04-15T00:31:14.210Z,100880.16
2024-04-15T00:33:41.303Z,100878.63
2024-04-15T00:36:08.337Z,100866.61
2024-04-15T00:38:35.377Z,100855.48
2024-04-15T00:41:02.363Z,100855.45
2024-04-15T00:43:29.371Z,100860.21
2024-04-15T00:45:56.511Z,100868.54
2024-04-15T00:48:23.467Z,100866.48
2024-04-15T00:50:50.658Z,100874.89
2024-04-15T00:53:19.759Z,100875.80
2024-04-15T00:55:47.793Z,100871.21
2024-04-15T00:58:15.021Z,100870.07
2024-04-15T01:00:42.230Z,100862.98
2024-04-15T01:03:09.350Z,100867.54
2024-04-15T01:05:36.662Z,100865.27
2024-04-15T01:08:04.062Z,100863.70
2024-04-15T01:10:38.638Z,100863.51
2024-04-15T01:13:13.789Z,100859.37
2024-04-15T01:15:40.883Z,100856.52
2024-04-15T01:18:08.087Z,100852.79
2024-04-15T01:20:35.191Z,100857.00
2024-04-15T01:23:06.467Z,100854.12
2024-04-15T01:25:33.531Z,100853.52
2024-04-15T01:28:00.882Z,100852.67
2024-04-15T01:30:27.980Z,100859.05
2024-04-15T01:32:54.976Z,100862.42
2024-04-15T01:35:22.011Z,100861.64
2024-04-15T01:37:50.169Z,100858.40
2024-04-15T01:40:17.393Z,100860.09
2024-04-15T01:42:44.586Z,100859.44
2024-04-15T01:45:11.945Z,100860.52
2024-04-15T01:47:39.238Z,100854.66
2024-04-15T01:50:06.612Z,100854.94
2024-04-15T01:52:33.660Z,100854.62
2024-04-15T01:55:00.776Z,100850.41
2024-04-15T01:57:27.936Z,100853.17
2024-04-15T01:59:55.098Z,100854.96
2024-04-15T02:02:22.154Z,100847.14
2024-04-15T02:04:49.385Z,100842.18
2024-04-15T02:07:16.637Z,100840.89
2024-04-15T02:09:43.702Z,100845.34
2024-04-15T02:12:10.668Z,100838.73
2024-04-15T02:14:37.637Z,100838.40
2024-04-15T02:17:04.633Z,100841.73
2024-04-15T02:19:32.102Z,100839.30
2024-04-15T02:21:59.846Z,100844.20
2024-04-15T02:24:28.526Z,100851.33
2024-04-15T02:26:56.125Z,100858.10
2024-04-15T02:29:23.295Z,100864.80
2024-04-15T02:31:51.231Z,100865.02
2024-04-15T02:34:18.462Z,100860.66
2024-04-15T02:36:45.816Z,100858.79
2024-04-15T02:39:13.397Z,100859.96
2024-04-15T02:41:40.648Z,100865.05
2024-04-15T02:44:07.897Z,100859.89
2024-04-15T02:46:35.091Z,100857.94
2024-04-15T02:49:02.119Z,100856.73
2024-04-15T02:51:32.035Z,100855.53
2024-04-15T02:53:59.295Z,100849.40
2024-04-15T02:56:27.474Z,100847.10
2024-04-15T02:58:54.671Z,100849.94
2024-04-15T03:01:21.857Z,100845.86
2024-04-15T03:03:49.195Z,100856.38
2024-04-15T03:06:20.367Z,100856.01
2024-04-15T03:08:47.731Z,100855.30
2024-04-15T03:11:14.879Z,100849.39
2024-04-15T03:13:42.047Z,100855.02
2024-04-15T03:16:16.512Z,100851.31
2024-04-15T03:18:49.821Z,100854.05
2024-04-15T03:21:17.157Z,100851.08
2024-04-15T03:23:45.922Z,100851.48
2024-04-15T03:26:13.018Z,100852.27
2024-04-15T03:28:40.182Z,100854.35
2024-04-15T03:31:07.931Z,100862.34
2024-04-15T03:33:35.135Z,100855.89
2024-04-15T03:36:02.289Z,100858.80
2024-04-15T03:38:29.508Z,100862.47
2024-04-15T03:40:57.348Z,100871.46
2024-04-15T03:43:26.505Z,100881.80
2024-04-15T03:45:53.618Z,100880.16
2024-04-15T03:48:20.704Z,100883.94
2024-04-15T03:50:47.859Z,100883.52
2024-04-15T03:53:14.960Z,100884.96
2024-04-15T03:55:42.026Z,100885.23
2024-04-15T03:58:09.374Z,100887.14
2024-04-15T04:00:36.616Z,100891.92
2024-04-15T04:03:04.011Z,100888.02
2024-04-15T04:05:31.336Z,100892.71
2024-04-15T04:07:58.524Z,100898.12
2024-04-15T04:10:26.214Z,100901.86
2024-04-15T04:12:53.905Z,100905.15
2024-04-15T04:15:21.368Z,100909.64
2024-04-15T04:17:48.869Z,100914.98
2024-04-15T04:20:16.270Z,100911.42
2024-04-15T04:22:43.369Z,100909.45
2024-04-15T04:25:10.699Z,100904.91
2024-04-15T04:27:38.029Z,100910.25
2024-04-15T04:30:06.366Z,100905.29
2024-04-15T04:32:33.692Z,100905.09
2024-04-15T04:35:01.248Z,100904.05
2024-04-15T04:37:28.867Z,100906.61
2024-04-15T04:39:56.510Z,100901.79
2024-04-15T04:42:23.635Z,100903.23
2024-04-15T04:44:56.862Z,100901.06
2024-04-15T04:47:24.201Z,100898.09
2024-04-15T04:49:54.746Z,100903.86
2024-04-15T04:52:21.948Z,100906.14
2024-04-15T04:54:49.951Z,100903.45
2024-04-15T04:57:17.654Z,100908.80
2024-04-15T04:59:45.435Z,100910.37
2024-04-15T05:02:13.443Z,100910.10
2024-04-15T05:04:40.860Z,100910.66
2024-04-15T05:07:08.051Z,100910.89
2024-04-15T05:09:35.286Z,100905.50
2024-04-15T05:12:02.779Z,100902.85
2024-04-15T05:14:30.100Z,100901.88
2024-04-15T05:16:57.189Z,100905.90
2024-04-15T05:19:24.261Z,100900.32
2024-04-15T05:21:51.414Z,100894.77
2024-04-15T05:24:18.705Z,100884.35
2024-04-15T05:26:45.667Z,100883.91
2024-04-15T05:29:12.828Z,100882.02
2024-04-15T05:31:40.154Z,100876.89
2024-04-15T05:34:07.975Z,100876.99
2024-04-15T05:36:35.291Z,100883.77
2024-04-15T05:39:03.322Z,100886.88
2024-04-15T05:41:30.668Z,100879.91
2024-04-15T05:43:57.741Z,100883.51
2024-04-15T05:46:24.959Z,100883.83
2024-04-15T05:48:52.125Z,100882.05
2024-04-15T05:51:20.933Z,100879.78
2024-04-15T05:53:48.168Z,100868.83
2024-04-15T05:56:15.886Z,100869.62
2024-04-15T05:58:43.376Z,100873.40
2024-04-15T06:01:10.725Z,100876.64
2024-04-15T06:03:38.584Z,100867.14
2024-04-15T06:06:06.127Z,100868.23
2024-04-15T06:08:33.452Z,100873.77
2024-04-15T06:11:00.819Z,100874.98
2024-04-15T06:13:27.696Z,100871.45
2024-04-15T06:15:54.580Z,100873.63
2024-04-15T06:18:21.388Z,100867.84
2024-04-15T06:20:49.530Z,100862.88
2024-04-15T06:23:16.878Z,100859.27
2024-04-15T06:25:43.928Z,100855.86
2024-04-15T06:28:10.877Z,100848.84
2024-04-15T06:30:39.306Z,100841.34
2024-04-15T06:33:13.013Z,100828.63
2024-04-15T06:35:48.660Z,100825.71
2024-04-15T06:38:16.772Z,100824.91
2024-04-15T06:40:44.236Z,100823.92
2024-04-15T06:43:11.654Z,100831.18
2024-04-15T06:45:39.477Z,100838.06
2024-04-15T06:48:07.603Z,100835.96
2024-04-15T06:50:35.429Z,100829.45
2024-04-15T06:53:04.826Z,100826.27
2024-04-15T06:55:33.457Z,100828.20
2024-04-15T06:58:01.143Z,100828.08
2024-04-15T07:00:28.373Z,100825.46
2024-04-15T07:02:55.824Z,100809.98
2024-04-15T07:05:23.185Z,100803.41
2024-04-15T07:07:50.449Z,100802.95
2024-04-15T07:10:17.740Z,100812.99
2024-04-15T07:12:45.684Z,100809.90
2024-04-15T07:15:13.045Z,100816.65
2024-04-15T07:17:41.579Z,100820.09
2024-04-15T07:20:09.317Z,100816.45
2024-04-15T07:22:36.683Z,100815.48
2024-04-15T07:25:04.602Z,100806.64
2024-04-15T07:27:36.733Z,100804.88
2024-04-15T07:30:04.627Z,100811.61
2024-04-15T07:32:34.500Z,100805.88
2024-04-15T07:35:02.053Z,100801.46
2024-04-15T07:37:29.548Z,100800.75
2024-04-15T07:42:32.250Z,100793.83
2024-04-15T07:45:08.015Z,100790.90
2024-04-15T07:47:35.780Z,100792.70
2024-04-15T07:50:03.770Z,100791.08
2024-04-15T07:52:31.233Z,100791.10
2024-04-15T07:54:58.624Z,100793.77
2024-04-15T07:57:25.979Z,100786.84
2024-04-15T07:59:53.431Z,100781.52
2024-04-15T08:02:21.676Z,100775.88
2024-04-15T08:04:50.078Z,100778.24
2024-04-15T08:07:17.456Z,100781.15
2024-04-15T08:09:45.623Z,100784.98
2024-04-15T08:12:13.876Z,100784.90
2024-04-15T08:14:41.358Z,100780.21
2024-04-15T08:17:08.905Z,100772.56
2024-04-15T08:19:37.820Z,100763.80
2024-04-15T08:22:05.324Z,100760.64
2024-04-15T08:24:32.669Z,100753.88
2024-04-15T08:27:00.108Z,100750.40
2024-04-15T08:29:28.934Z,100745.96
2024-04-15T08:32:01.888Z,100740.04
2024-04-15T08:37:14.923Z,100730.85
2024-04-15T08:39:43.097Z,100734.30
2024-04-15T08:42:19.852Z,100733.17
2024-04-15T08:44:49.284Z,100728.63
2024-04-15T08:47:32.176Z,100723.34
2024-04-15T08:49:59.853Z,100716.34
2024-04-15T08:52:27.180Z,100715.33
2024-04-15T08:54:54.136Z,100716.11
2024-04-15T08:57:21.104Z,100713.57
2024-04-15T08:59:48.020Z,100712.59
2024-04-15T09:02:17.707Z,100706.99
2024-04-15T09:04:45.007Z,100705.32
2024-04-15T09:07:12.092Z,100691.48
2024-04-15T09:09:39.106Z,100687.31
2024-04-15T09:12:07.749Z,100683.53
2024-04-15T09:14:38.286Z,100685.28
2024-04-15T09:17:06.774Z,100684.23
2024-04-15T09:19:34.022Z,100683.48
2024-04-15T09:22:01.805Z,100678.30
2024-04-15T09:24:29.638Z,100678.29
2024-04-15T09:26:56.502Z,100673.52
2024-04-15T09:29:23.498Z,100672.97
2024-04-15T09:31:50.526Z,100673.23
2024-04-15T09:34:18.107Z,100670.50
2024-04-15T09:36:57.813Z,100663.73
2024-04-15T09:39:25.120Z,100661.68
2024-04-15T09:41:54.477Z,100653.89
2024-04-15T09:44:21.771Z,100652.20
2024-04-15T09:46:48.928Z,100646.36
2024-04-15T09:49:16.272Z,100644.31
2024-04-15T09:51:43.440Z,100639.04
2024-04-15T09:54:11.315Z,100638.71
2024-04-15T09:56:48.451Z,100636.23
2024-04-15T09:59:15.977Z,100630.30
2024-04-15T10:01:43.880Z,100631.48
2024-04-15T10:04:25.001Z,100621.11
2024-04-15T10:06:59.747Z,100621.26
2024-04-15T10:09:26.727Z,100614.00
2024-04-15T10:11:53.736Z,100611.23
2024-04-15T10:14:20.997Z,100608.84
2024-04-15T10:16:48.645Z,100596.92
2024-04-15T10:19:28.158Z,100593.64
2024-04-15T10:21:55.986Z,100583.17
2024-04-15T10:24:23.319Z,100575.32
2024-04-15T10:26:50.119Z,100573.40
2024-04-15T10:29:22.137Z,100573.90
2024-04-15T10:31:53.225Z,100569.48
2024-04-15T10:34:22.551Z,100568.30
2024-04-15T10:36:50.269Z,100569.13
2024-04-15T10:39:17.774Z,100562.29
2024-04-15T10:41:45.425Z,100555.48
2024-04-15T10:44:12.515Z,100544.81
2024-04-15T10:46:46.143Z,100542.08
2024-04-15T10:49:13.913Z,100540.55
2024-04-15T10:51:41.754Z,100535.14
2024-04-15T10:54:09.792Z,100532.07
2024-04-15T10:56:37.061Z,100538.59
2024-04-15T10:59:04.211Z,100530.34
2024-04-15T11:01:31.054Z,100523.14
2024-04-15T11:04:06.140Z,100518.34
2024-04-15T11:06:34.478Z,100510.26
2024-04-15T11:09:01.341Z,100511.94
2024-04-15T11:11:28.345Z,100508.41
2024-04-15T11:13:55.859Z,100508.18
2024-04-15T11:16:23.145Z,100503.08
2024-04-15T11:18:51.898Z,100498.73
2024-04-15T11:21:19.419Z,100489.20
2024-04-15T11:23:46.354Z,100478.16
2024-04-15T11:26:14.180Z,100474.52
2024-04-15T11:28:41.966Z,100467.22
2024-04-15T11:31:09.006Z,100458.56
2024-04-15T11:33:36.251Z,100451.33
2024-04-15T11:36:03.737Z,100440.04
2024-04-15T11:38:31.404Z,100433.90
2024-04-15T11:40:58.625Z,100424.03
2024-04-15T11:43:26.055Z,100414.92
2024-04-15T11:45:54.952Z,100409.58
2024-04-15T11:48:23.304Z,100411.38
2024-04-15T11:50:50.580Z,100398.91
2024-04-15T11:53:24.860Z,100393.45
2024-04-15T11:55:55.664Z,100391.64
2024-04-15T11:58:23.609Z,100382.40
2024-04-15T12:00:52.743Z,100374.83
2024-04-15T12:03:23.139Z,100374.34
2024-04-15T12:05:54.886Z,100361.58
2024-04-15T12:08:25.952Z,100357.84
2024-04-15T12:10:53.315Z,100349.13
2024-04-15T12:13:20.764Z,100342.59
2024-04-15T12:15:47.890Z,100336.70
2024-04-15T12:18:15.334Z,100330.69
2024-04-15T12:20:43.365Z,100320.62
2024-04-15T12:23:10.846Z,100318.80
2024-04-15T12:25:38.090Z,100312.20
2024-04-15T12:28:05.691Z,100303.02
2024-04-15T12:30:33.296Z,100295.29
2024-04-15T12:33:01.599Z,100284.42
2024-04-15T12:35:28.716Z,100279.55
2024-04-15T12:37:56.059Z,100276.03
2024-04-15T12:40:23.605Z,100271.23
2024-04-15T12:42:50.829Z,100262.13
2024-04-15T12:45:20.797Z,100255.20
2024-04-15T12:47:47.894Z,100245.44
2024-04-15T12:50:15.170Z,100238.44
2024-04-15T12:52:42.745Z,100239.91
2024-04-15T12:55:10.625Z,100234.16
2024-04-15T12:57:39.836Z,100229.37
2024-04-15T13:00:07.612Z,100221.65
2024-04-15T13:02:37.162Z,100212.20
2024-04-15T13:05:04.787Z,100210.64
2024-04-15T13:07:31.980Z,100205.92
2024-04-15T13:09:59.076Z,100199.23
2024-04-15T13:12:26.548Z,100194.59
2024-04-15T13:14:53.447Z,100188.66
2024-04-15T13:17:20.446Z,100188.48
2024-04-15T13:19:47.881Z,100187.15
2024-04-15T13:22:15.229Z,100185.56
2024-04-15T13:24:42.261Z,100184.95
2024-04-15T13:27:09.440Z,100185.40
2024-04-15T13:29:36.585Z,100181.05
2024-04-15T13:32:13.516Z,100180.23
2024-04-15T13:34:45.225Z,100175.35
2024-04-15T13:37:14.015Z,100171.48
2024-04-15T13:39:42.120Z,100170.98
2024-04-15T13:42:10.851Z,100168.71
2024-04-15T13:44:38.090Z,100164.34
2024-04-15T13:47:05.497Z,100166.10
2024-04-15T13:49:32.543Z,100155.77
2024-04-15T13:52:01.733Z,100152.08
2024-04-15T13:54:29.298Z,100145.85
2024-04-15T13:56:56.933Z,100140.66
2024-04-15T13:59:24.382Z,100140.41
2024-04-15T14:01:51.189Z,100135.92
2024-04-15T14:04:18.340Z,100132.73
2024-04-15T14:06:45.275Z,100127.48
2024-04-15T14:09:14.872Z,100122.46
2024-04-15T14:11:42.071Z,100120.65
2024-04-15T14:14:09.393Z,100118.03
2024-04-15T14:16:36.249Z,100110.98
2024-04-15T14:19:03.634Z,100105.38
2024-04-15T14:21:30.688Z,100102.81
2024-04-15T14:23:58.609Z,100091.61
2024-04-15T14:26:26.198Z,100083.84
2024-04-15T14:28:53.319Z,100080.81
2024-04-15T14:31:20.757Z,100082.87
2024-04-15T14:33:48.132Z,100071.39
2024-04-15T14:36:15.920Z,100074.08
2024-04-15T14:38:45.883Z,100061.89
2024-04-15T14:41:13.141Z,100057.56
2024-04-15T14:43:40.237Z,100048.11
2024-04-15T14:46:07.240Z,100047.45
2024-04-15T14:48:34.281Z,100043.56
2024-04-15T14:51:01.630Z,100034.29
2024-04-15T14:53:30.604Z,100029.80
2024-04-15T14:55:57.922Z,100028.05
2024-04-15T14:58:24.970Z,100029.45
2024-04-15T15:00:52.009Z,100025.02
2024-04-15T15:03:19.130Z,100014.96
2024-04-15T15:05:46.264Z,100015.10
2024-04-15T15:08:13.270Z,100012.11
2024-04-15T15:10:40.266Z,100007.20
2024-04-15T15:13:07.322Z,100001.05
2024-04-15T15:15:35.016Z,99995.61
2024-04-15T15:18:02.201Z,99988.71
2024-04-15T15:20:29.123Z,99991.20
2024-04-15T15:22:56.289Z,99985.09
2024-04-15T15:25:24.425Z,99979.56
2024-04-15T15:27:52.784Z,99975.46
2024-04-15T15:30:22.914Z,99975.66
2024-04-15T15:32:50.873Z,99972.92
2024-04-15T15:35:18.474Z,99964.69
2024-04-15T15:37:45.643Z,99961.89
2024-04-15T15:40:13.238Z,99958.77
2024-04-15T15:42:40.388Z,99949.70
2024-04-15T15:45:07.811Z,99951.19
2024-04-15T15:47:35.442Z,99945.38
2024-04-15T15:50:03.253Z,99941.19
2024-04-15T15:52:30.322Z,99944.34
2024-04-15T15:54:58.367Z,99936.92
2024-04-15T15:57:26.568Z,99934.58
2024-04-15T15:59:56.076Z,99935.40
2024-04-15T16:02:30.442Z,99932.08
2024-04-15T16:05:04.299Z,99930.75
2024-04-15T16:07:31.316Z,99927.39
2024-04-15T16:09:58.647Z,99922.60
2024-04-15T16:12:26.126Z,99919.04
2024-04-15T16:14:53.287Z,99912.73
2024-04-15T16:17:20.406Z,99910.52
2024-04-15T16:19:47.644Z,99913.45
2024-04-15T16:22:14.680Z,99908.13
2024-04-15T16:24:43.263Z,99910.18
2024-04-15T16:27:13.405Z,99910.56
2024-04-15T16:29:40.792Z,99910.60
2024-04-15T16:32:10.893Z,99906.77
2024-04-15T16:34:39.473Z,99903.14
2024-04-15T16:37:09.092Z,99902.64
2024-04-15T16:39:36.387Z,99899.61
2024-04-15T16:42:04.325Z,99898.11
2024-04-15T16:44:31.253Z,99894.52
2024-04-15T16:46:58.497Z,99891.13
2024-04-15T16:49:31.828Z,99884.49
2024-04-15T16:51:59.196Z,99886.71
2024-04-15T16:54:26.198Z,99882.44
2024-04-15T16:56:53.618Z,99879.08
2024-04-15T16:59:20.896Z,99877.71
2024-04-15T17:01:47.901Z,99873.46
2024-04-15T17:04:14.981Z,99875.80
2024-04-15T17:06:42.550Z,99870.56
2024-04-15T17:09:09.643Z,99873.27
2024-04-15T17:11:37.012Z,99866.77
2024-04-15T17:14:04.082Z,99867.34
2024-04-15T17:16:31.341Z,99865.72
2024-04-15T17:18:58.511Z,99866.19
2024-04-15T17:21:25.653Z,99862.67
2024-04-15T17:23:52.658Z,99863.84
2024-04-15T17:26:19.619Z,99862.59
2024-04-15T17:28:46.610Z,99868.36
2024-04-15T17:31:13.791Z,99871.79
2024-04-15T17:33:40.958Z,99869.80
2024-04-15T17:36:08.267Z,99867.71
2024-04-15T17:38:35.274Z,99868.22
2024-04-15T17:41:02.837Z,99863.84
2024-04-15T17:43:30.731Z,99867.36
2024-04-15T17:45:59.390Z,99871.75
2024-04-15T17:48:27.045Z,99866.16
2024-04-15T17:50:54.092Z,99863.79
2024-04-15T17:53:21.104Z,99866.03
2024-04-15T17:55:48.915Z,99864.06
2024-04-15T17:58:15.970Z,99858.94
2024-04-15T18:00:43.103Z,99856.31
2024-04-15T18:03:10.174Z,99854.63
2024-04-15T18:05:37.388Z,99855.38
2024-04-15T18:08:04.703Z,99856.85
2024-04-15T18:10:31.993Z,99856.08
2024-04-15T18:12:59.406Z,99859.48
2024-04-15T18:15:26.686Z,99855.69
2024-04-15T18:17:55.067Z,99853.40
2024-04-15T18:20:22.244Z,99850.99
2024-04-15T18:22:49.448Z,99851.91
2024-04-15T18:25:16.503Z,99849.44
2024-04-15T18:27:43.923Z,99848.13
2024-04-15T18:30:11.630Z,99850.01
2024-04-15T18:32:38.931Z,99845.84
2024-04-15T18:35:06.140Z,99842.77
2024-04-15T18:37:33.278Z,99839.77
2024-04-15T18:40:00.511Z,99839.60
2024-04-15T18:42:27.923Z,99835.61
2024-04-15T18:45:27.994Z,99830.70
2024-04-15T18:47:55.043Z,99827.77
2024-04-15T18:50:23.874Z,99825.55
2024-04-15T18:52:51.280Z,99823.04
2024-04-15T18:55:18.289Z,99821.42
2024-04-15T18:57:45.432Z,99817.99
2024-04-15T19:00:13.225Z,99817.73
2024-04-15T19:02:40.394Z,99814.70
2024-04-15T19:05:07.563Z,99808.36
2024-04-15T19:07:34.778Z,99807.86
2024-04-15T19:10:01.856Z,99802.60
2024-04-15T19:12:28.911Z,99801.30
2024-04-15T19:15:05.982Z,99794.20
2024-04-15T19:17:40.744Z,99789.49
2024-04-15T19:20:09.126Z,99790.96
2024-04-15T19:22:36.287Z,99783.59
2024-04-15T19:25:03.832Z,99778.73
2024-04-15T19:27:30.885Z,99772.64
2024-04-15T19:29:58.085Z,99772.89
2024-04-15T19:32:25.306Z,99766.33
2024-04-15T19:34:52.525Z,99765.60
2024-04-15T19:37:19.692Z,99766.03
2024-04-15T19:39:47.235Z,99766.67
2024-04-15T19:42:14.239Z,99765.91
2024-04-15T19:44:41.322Z,99767.88
2024-04-15T19:47:08.326Z,99760.71
2024-04-15T19:49:35.423Z,99755.11
2024-04-15T19:52:02.443Z,99752.87
2024-04-15T19:54:29.429Z,99744.77
2024-04-15T19:56:57.095Z,99739.16
2024-04-15T19:59:24.130Z,99729.82
2024-04-15T20:01:51.634Z,99727.39
2024-04-15T20:04:18.637Z,99725.66
2024-04-15T20:06:45.630Z,99721.73
2024-04-15T20:09:12.767Z,99719.52
2024-04-15T20:11:39.640Z,99714.27
2024-04-15T20:14:09.386Z,99711.15
2024-04-15T20:16:36.814Z,99708.98
2024-04-15T20:19:06.366Z,99705.52
2024-04-15T20:21:33.884Z,99702.49
2024-04-15T20:24:00.879Z,99698.13
2024-04-15T20:26:29.736Z,99697.96
2024-04-15T20:28:56.684Z,99693.55
2024-04-15T20:31:23.663Z,99690.55
2024-04-15T20:33:50.966Z,99688.18
2024-04-15T20:36:17.857Z,99684.15
2024-04-15T20:38:45.023Z,99683.11
2024-04-15T20:41:12.369Z,99685.26
2024-04-15T20:43:39.639Z,99683.19
2024-04-15T20:46:08.343Z,99689.42
2024-04-15T20:48:35.445Z,99684.80
2024-04-15T20:51:02.518Z,99683.13
2024-04-15T20:53:30.531Z,99679.02
2024-04-15T20:55:58.013Z,99682.36
2024-04-15T20:58:25.148Z,99690.77
2024-04-15T21:00:52.143Z,99704.66
2024-04-15T21:03:19.414Z,99698.82
2024-04-15T21:05:46.590Z,99672.08
2024-04-15T21:08:13.561Z,99664.65
2024-04-15T21:10:40.734Z,99677.34
2024-04-15T21:13:08.202Z,99665.00
2024-04-15T21:15:35.082Z,99662.78
2024-04-15T21:18:02.074Z,99663.83
2024-04-15T21:20:29.724Z,99660.95
2024-04-15T21:22:56.702Z,99655.94
2024-04-15T21:25:23.698Z,99656.33
2024-04-15T21:27:55.778Z,99658.35
2024-04-15T21:30:23.324Z,99673.95
2024-04-15T21:32:50.389Z,99679.34
2024-04-15T21:35:17.315Z,99686.77
2024-04-15T21:37:44.480Z,99694.67
2024-04-15T21:40:11.842Z,99688.04
2024-04-15T21:42:38.974Z,99697.64
2024-04-15T21:47:52.495Z,99707.00
2024-04-15T21:50:19.698Z,99705.42
2024-04-15T21:52:46.670Z,99704.60
2024-04-15T21:55:13.766Z,99702.14
2024-04-15T21:57:40.833Z,99701.36
2024-04-15T22:00:08.192Z,99695.83
2024-04-15T22:02:37.833Z,99697.83
2024-04-15T22:05:05.044Z,99707.73
2024-04-15T22:07:32.421Z,99707.05
2024-04-15T22:10:00.371Z,99703.63
2024-04-15T22:12:27.359Z,99698.96
2024-04-15T22:14:54.406Z,99695.19
2024-04-15T22:17:24.942Z,99701.09
2024-04-15T22:19:51.964Z,99700.89
2024-04-15T22:22:19.483Z,99702.33
2024-04-15T22:24:47.973Z,99701.02
2024-04-15T22:27:14.975Z,99705.30
2024-04-15T22:29:41.982Z,99706.69
2024-04-15T22:32:08.925Z,99712.14
2024-04-15T22:34:35.915Z,99718.67
2024-04-15T22:37:03.010Z,99729.25
2024-04-15T22:39:30.117Z,99736.80
2024-04-15T22:41:58.390Z,99740.19
2024-04-15T22:44:25.267Z,99743.04
2024-04-15T22:46:52.239Z,99751.26
2024-04-15T22:49:19.379Z,99756.44
2024-04-15T22:51:46.430Z,99757.53
2024-04-15T22:54:13.412Z,99764.92
2024-04-15T22:56:40.406Z,99764.72
2024-04-15T22:59:07.402Z,99773.59
2024-04-15T23:01:34.470Z,99776.60
2024-04-15T23:04:01.600Z,99776.02
2024-04-15T23:06:28.837Z,99775.80
2024-04-15T23:08:55.823Z,99772.61
2024-04-15T23:11:22.792Z,99774.27
2024-04-15T23:13:49.895Z,99764.02
2024-04-15T23:16:17.105Z,99762.58
2024-04-15T23:18:44.561Z,99767.05
2024-04-15T23:21:11.480Z,99774.06
2024-04-15T23:23:39.103Z,99774.46
2024-04-15T23:26:05.989Z,99771.54
2024-04-15T23:28:33.286Z,99773.12
2024-04-15T23:31:01.438Z,99775.80
2024-04-15T23:33:28.557Z,99789.09
2024-04-15T23:35:55.924Z,99785.23
2024-04-15T23:38:22.819Z,99782.73
2024-04-15T23:40:49.878Z,99780.99
2024-04-15T23:43:16.885Z,99779.86
2024-04-15T23:46:02.734Z,99768.79
2024-04-15T23:48:48.610Z,99765.61
2024-04-15T23:51:34.093Z,99787.45
2024-04-15T23:54:20.261Z,99805.90
2024-04-15T23:57:05.714Z,99821.66
2024-04-15T23:59:32.659Z,99827.71
